createdAt,value
2022-08-17T00:01:30.080Z,101281.72
2022-08-17T00:04:12.319Z,101292.22
2022-08-17T00:06:42.870Z,101293.09
2022-08-17T00:09:12.806Z,101293.94
2022-08-17T00:12:42.111Z,101292.09
2022-08-17T00:14:32.868Z,101296.06
2022-08-17T00:16:59.489Z,101295.53
2022-08-17T00:19:26.901Z,101302.06
2022-08-17T00:22:32.814Z,101294.28
2022-08-17T00:24:44.072Z,101290.91
2022-08-17T00:27:10.568Z,101292.91
2022-08-17T00:29:37.023Z,101282.75
2022-08-17T00:33:11.875Z,101292.50
2022-08-17T00:34:50.944Z,101296.19
2022-08-17T00:37:17.469Z,101291.41
2022-08-17T00:39:44.254Z,101291.81
2022-08-17T00:42:19.532Z,101277.66
2022-08-17T00:44:46.723Z,101283.06
2022-08-17T00:47:14.002Z,101278.66
2022-08-17T00:49:40.650Z,101271.00
2022-08-17T00:52:15.527Z,101274.69
2022-08-17T00:54:46.465Z,101270.00
2022-08-17T00:57:21.813Z,101272.69
2022-08-17T01:00:02.655Z,101269.84
2022-08-17T01:02:34.442Z,101269.00
2022-08-17T01:05:13.674Z,101263.22
2022-08-17T01:07:41.421Z,101257.47
2022-08-17T01:10:57.279Z,101253.84
2022-08-17T01:12:57.998Z,101248.94
2022-08-17T01:15:24.606Z,101262.22
2022-08-17T01:17:51.150Z,101261.53
2022-08-17T01:20:17.804Z,101256.63
2022-08-17T01:22:44.422Z,101263.84
2022-08-17T01:25:12.583Z,101261.00
2022-08-17T01:27:39.419Z,101251.09
2022-08-17T01:30:56.813Z,101263.53
2022-08-17T01:32:56.952Z,101256.63
2022-08-17T01:35:23.533Z,101257.31
2022-08-17T01:37:50.387Z,101263.91
2022-08-17T01:40:36.158Z,101264.06
2022-08-17T01:43:14.465Z,101260.84
2022-08-17T01:45:47.670Z,101260.38
2022-08-17T01:48:14.892Z,101264.78
2022-08-17T01:50:44.556Z,101257.78
2022-08-17T01:53:19.235Z,101255.78
2022-08-17T01:55:52.379Z,101262.78
2022-08-17T01:58:19.933Z,101261.47
2022-08-17T02:01:00.556Z,101257.78
2022-08-17T02:03:28.749Z,101254.25
2022-08-17T02:05:55.666Z,101247.31
2022-08-17T02:08:37.052Z,101247.03
2022-08-17T02:11:11.900Z,101242.78
2022-08-17T02:13:39.161Z,101245.88
2022-08-17T02:16:06.062Z,101241.66
2022-08-17T02:18:32.724Z,101236.25
2022-08-17T02:20:59.536Z,101238.81
2022-08-17T02:23:30.523Z,101241.34
2022-08-17T02:25:59.724Z,101240.88
2022-08-17T02:28:26.317Z,101241.34
2022-08-17T02:31:02.589Z,101254.63
2022-08-17T02:33:41.863Z,101263.72
2022-08-17T02:36:09.276Z,101286.06
2022-08-17T02:38:37.686Z,101314.81
2022-08-17T02:41:04.544Z,101335.78
2022-08-17T02:43:31.898Z,101340.63
2022-08-17T02:45:58.322Z,101346.66
2022-08-17T02:48:30.437Z,101357.31
2022-08-17T02:50:58.481Z,101351.56
2022-08-17T02:53:25.643Z,101339.56
2022-08-17T02:55:52.687Z,101340.84
2022-08-17T02:58:34.326Z,101340.13
2022-08-17T03:01:03.229Z,101339.13
2022-08-17T03:03:29.802Z,101340.84
2022-08-17T03:05:56.409Z,101336.00
2022-08-17T03:08:23.355Z,101330.66
2022-08-17T03:10:50.505Z,101322.16
2022-08-17T03:13:18.088Z,101289.31
2022-08-17T03:15:45.928Z,101289.13
2022-08-17T03:18:25.096Z,101283.28
2022-08-17T03:20:59.621Z,101292.06
2022-08-17T03:23:29.547Z,101281.44
2022-08-17T03:25:57.101Z,101287.44
2022-08-17T03:28:24.220Z,101291.56
2022-08-17T03:30:51.626Z,101304.59
2022-08-17T03:33:18.997Z,101316.59
2022-08-17T03:35:46.195Z,101322.22
2022-08-17T03:38:15.885Z,101324.63
2022-08-17T03:40:57.160Z,101343.84
2022-08-17T03:43:31.737Z,101349.34
2022-08-17T03:46:33.917Z,101343.97
2022-08-17T03:49:23.336Z,101354.03
2022-08-17T03:52:08.637Z,101359.56
2022-08-17T03:54:53.604Z,101359.44
2022-08-17T03:57:20.290Z,101353.34
2022-08-17T03:59:47.571Z,101355.72
2022-08-17T04:02:20.216Z,101364.13
2022-08-17T04:04:46.913Z,101357.50
2022-08-17T04:07:13.468Z,101350.47
2022-08-17T04:09:40.006Z,101350.91
2022-08-17T04:12:09.317Z,101355.13
2022-08-17T04:14:51.876Z,101352.31
2022-08-17T04:17:20.049Z,101364.91
2022-08-17T04:19:46.720Z,101351.19
2022-08-17T04:22:30.626Z,101346.09
2022-08-17T04:25:05.661Z,101325.03
2022-08-17T04:27:32.354Z,101332.94
2022-08-17T04:29:58.858Z,101330.56
2022-08-17T04:33:04.386Z,101340.72
2022-08-17T04:35:11.851Z,101341.59
2022-08-17T04:37:38.282Z,101342.44
2022-08-17T04:40:25.952Z,101340.31
2022-08-17T04:43:07.291Z,101338.34
2022-08-17T04:45:33.896Z,101336.34
2022-08-17T04:48:01.240Z,101326.03
2022-08-17T04:50:27.823Z,101321.78
2022-08-17T04:52:54.488Z,101325.44
2022-08-17T04:55:21.477Z,101319.38
2022-08-17T04:57:48.012Z,101323.63
2022-08-17T05:00:14.927Z,101322.75
2022-08-17T05:02:50.921Z,101320.63
2022-08-17T05:05:29.708Z,101319.78
2022-08-17T05:08:00.781Z,101331.94
2022-08-17T05:10:30.669Z,101319.06
2022-08-17T05:13:02.948Z,101324.72
2022-08-17T05:15:33.112Z,101323.28
2022-08-17T05:18:04.074Z,101322.16
2022-08-17T05:20:31.708Z,101323.94
2022-08-17T05:23:00.913Z,101333.97
2022-08-17T05:25:37.558Z,101337.50
2022-08-17T05:28:05.274Z,101337.31
2022-08-17T05:30:33.946Z,101331.50
2022-08-17T05:33:03.872Z,101317.78
2022-08-17T05:35:33.371Z,101323.56
2022-08-17T05:38:00.785Z,101326.72
2022-08-17T05:40:28.379Z,101320.59
2022-08-17T05:43:39.041Z,101315.09
2022-08-17T05:46:18.965Z,101308.09
2022-08-17T05:48:51.841Z,101308.81
2022-08-17T05:51:37.045Z,101310.63
2022-08-17T05:54:24.742Z,101313.34
2022-08-17T05:57:15.150Z,101308.19
2022-08-17T05:59:41.849Z,101312.81
2022-08-17T06:02:18.622Z,101310.28
2022-08-17T06:05:10.325Z,101307.53
2022-08-17T06:07:52.677Z,101301.69
2022-08-17T06:10:32.981Z,101300.53
2022-08-17T06:13:14.453Z,101293.00
2022-08-17T06:15:43.505Z,101289.78
2022-08-17T06:18:18.906Z,101297.25
2022-08-17T06:20:56.477Z,101299.09
2022-08-17T06:23:37.474Z,101300.78
2022-08-17T06:26:31.225Z,101300.47
2022-08-17T06:29:30.699Z,101299.59
2022-08-17T06:32:06.265Z,101307.34
2022-08-17T06:34:37.989Z,101309.59
2022-08-17T06:37:39.178Z,101312.81
2022-08-17T06:40:18.644Z,101316.50
2022-08-17T06:43:05.681Z,101322.88
2022-08-17T06:45:49.203Z,101333.50
2022-08-17T06:48:31.663Z,101331.59
2022-08-17T06:51:11.229Z,101337.38
2022-08-17T06:53:48.282Z,101336.38
2022-08-17T06:56:27.064Z,101337.97
2022-08-17T06:59:19.612Z,101343.22
2022-08-17T07:01:49.614Z,101335.72
2022-08-17T07:04:23.465Z,101342.13
2022-08-17T07:07:23.001Z,101344.66
2022-08-17T07:09:51.305Z,101355.84
2022-08-17T07:12:22.483Z,101349.16
2022-08-17T07:14:53.210Z,101356.47
2022-08-17T07:17:22.397Z,101362.22
2022-08-17T07:20:17.809Z,101354.00
2022-08-17T07:23:19.054Z,101363.47
2022-08-17T07:25:45.705Z,101357.91
2022-08-17T07:28:12.970Z,101352.69
2022-08-17T07:30:46.983Z,101356.44
2022-08-17T07:33:21.053Z,101354.97
2022-08-17T07:35:48.523Z,101359.22
2022-08-17T07:38:30.344Z,101346.75
2022-08-17T07:41:02.041Z,101352.75
2022-08-17T07:43:39.607Z,101361.84
2022-08-17T07:46:32.378Z,101366.00
2022-08-17T07:49:07.892Z,101381.00
2022-08-17T07:51:43.903Z,101385.53
2022-08-17T07:54:22.425Z,101392.25
2022-08-17T07:56:55.517Z,101390.84
2022-08-17T07:59:34.402Z,101388.69
2022-08-17T08:02:03.563Z,101383.84
2022-08-17T08:05:00.198Z,101383.00
2022-08-17T08:07:38.146Z,101383.84
2022-08-17T08:10:16.806Z,101380.47
2022-08-17T08:12:53.694Z,101385.53
2022-08-17T08:15:22.239Z,101382.69
2022-08-17T08:17:57.698Z,101379.06
2022-08-17T08:20:51.358Z,101388.31
2022-08-17T08:23:57.378Z,101397.31
2022-08-17T08:26:55.414Z,101383.69
2022-08-17T08:29:31.026Z,101377.50
2022-08-17T08:32:03.932Z,101390.44
2022-08-17T08:35:08.200Z,101383.81
2022-08-17T08:37:59.860Z,101380.19
2022-08-17T08:40:54.333Z,101375.66
2022-08-17T08:43:29.932Z,101380.88
2022-08-17T08:46:02.382Z,101381.41
2022-08-17T08:48:58.417Z,101376.28
2022-08-17T08:51:48.435Z,101378.97
2022-08-17T08:54:22.324Z,101392.13
2022-08-17T08:57:23.177Z,101389.03
2022-08-17T09:00:15.652Z,101392.03
2022-08-17T09:03:02.907Z,101395.88
2022-08-17T09:05:54.117Z,101383.19
2022-08-17T09:08:43.695Z,101381.56
2022-08-17T09:11:22.387Z,101386.41
2022-08-17T09:13:58.168Z,101382.72
2022-08-17T09:16:37.370Z,101381.41
2022-08-17T09:19:11.897Z,101396.88
2022-08-17T09:21:49.703Z,101399.41
2022-08-17T09:24:33.510Z,101393.72
2022-08-17T09:27:11.538Z,101403.66
2022-08-17T09:29:43.502Z,101408.19
2022-08-17T09:32:19.596Z,101404.50
2022-08-17T09:35:01.420Z,101421.88
2022-08-17T09:37:37.523Z,101417.34
2022-08-17T09:40:17.465Z,101412.63
2022-08-17T09:42:52.392Z,101408.78
2022-08-17T09:45:26.338Z,101400.69
2022-08-17T09:47:59.896Z,101397.00
2022-08-17T09:51:04.705Z,101395.25
2022-08-17T09:53:35.637Z,101396.41
2022-08-17T09:56:12.536Z,101383.25
2022-08-17T09:59:09.132Z,101383.09
2022-08-17T10:01:43.231Z,101389.53
2022-08-17T10:04:29.880Z,101411.50
2022-08-17T10:07:30.542Z,101455.03
2022-08-17T10:10:03.097Z,101490.47
2022-08-17T10:12:46.484Z,101502.38
2022-08-17T10:15:22.453Z,101502.97
2022-08-17T10:18:20.636Z,101506.50
2022-08-17T10:21:15.485Z,101484.13
2022-08-17T10:24:02.702Z,101426.38
2022-08-17T10:26:46.303Z,101435.88
2022-08-17T10:29:28.883Z,101432.41
2022-08-17T10:32:01.530Z,101435.78
2022-08-17T10:34:41.212Z,101427.31
2022-08-17T10:37:37.693Z,101410.78
2022-08-17T10:40:24.518Z,101410.91
2022-08-17T10:43:36.596Z,101401.25
2022-08-17T10:46:46.256Z,101400.56
2022-08-17T10:49:18.810Z,101391.59
2022-08-17T10:51:48.009Z,101389.03
2022-08-17T10:54:58.092Z,101389.59
2022-08-17T10:57:38.946Z,101395.06
2022-08-17T11:00:07.904Z,101406.41
2022-08-17T11:03:01.041Z,101409.03
2022-08-17T11:05:44.145Z,101406.19
2022-08-17T11:08:33.397Z,101405.16
2022-08-17T11:11:19.743Z,101405.00
2022-08-17T11:14:11.238Z,101417.72
2022-08-17T11:16:57.292Z,101414.03
2022-08-17T11:19:43.426Z,101423.47
2022-08-17T11:22:34.027Z,101421.78
2022-08-17T11:25:17.210Z,101429.41
2022-08-17T11:27:53.359Z,101426.88
2022-08-17T11:30:46.893Z,101430.56
2022-08-17T11:33:33.924Z,101431.19
2022-08-17T11:36:33.028Z,101441.09
2022-08-17T11:39:17.547Z,101461.44
2022-08-17T11:42:22.002Z,101468.56
2022-08-17T11:44:55.642Z,101458.94
2022-08-17T11:48:27.065Z,101446.50
2022-08-17T11:51:19.224Z,101451.97
2022-08-17T11:53:45.823Z,101475.78
2022-08-17T11:56:32.767Z,101496.09
2022-08-17T11:59:00.807Z,101515.63
2022-08-17T12:01:28.966Z,101522.16
2022-08-17T12:04:24.975Z,101532.47
2022-08-17T12:06:56.859Z,101523.16
2022-08-17T12:09:29.835Z,101523.00
2022-08-17T12:12:14.549Z,101527.28
2022-08-17T12:15:09.459Z,101529.44
2022-08-17T12:17:41.207Z,101523.53
2022-08-17T12:20:33.561Z,101532.16
2022-08-17T12:23:17.126Z,101532.28
2022-08-17T12:25:49.451Z,101529.63
2022-08-17T12:28:30.640Z,101530.34
2022-08-17T12:31:03.726Z,101515.38
2022-08-17T12:33:30.689Z,101512.09
2022-08-17T12:36:03.922Z,101509.97
2022-08-17T12:38:36.063Z,101491.44
2022-08-17T12:41:24.978Z,101480.13
2022-08-17T12:44:03.761Z,101463.97
2022-08-17T12:46:48.245Z,101467.50
2022-08-17T12:49:16.660Z,101467.34
2022-08-17T12:51:48.149Z,101470.34
2022-08-17T12:54:38.003Z,101487.59
2022-08-17T12:57:20.471Z,101480.09
2022-08-17T12:59:52.480Z,101480.50
2022-08-17T13:02:24.371Z,101474.00
2022-08-17T13:04:53.407Z,101472.31
2022-08-17T13:07:28.409Z,101475.47
2022-08-17T13:09:54.994Z,101467.63
2022-08-17T13:12:39.554Z,101474.19
2022-08-17T13:15:06.213Z,101462.69
2022-08-17T13:17:35.974Z,101453.09
2022-08-17T13:20:16.251Z,101448.41
2022-08-17T13:22:44.325Z,101448.53
2022-08-17T13:25:16.333Z,101436.91
2022-08-17T13:27:50.665Z,101447.09
2022-08-17T13:30:23.765Z,101446.63
2022-08-17T13:32:50.404Z,101439.72
2022-08-17T13:35:41.013Z,101446.94
2022-08-17T13:38:36.065Z,101429.94
2022-08-17T13:41:03.957Z,101421.88
2022-08-17T13:43:37.567Z,101426.41
2022-08-17T13:46:21.718Z,101418.78
2022-08-17T13:49:11.458Z,101419.19
2022-08-17T13:51:46.352Z,101414.66
2022-08-17T13:54:33.192Z,101414.66
2022-08-17T13:57:06.552Z,101418.34
2022-08-17T13:59:54.616Z,101427.66
2022-08-17T14:02:25.974Z,101423.81
2022-08-17T14:04:55.675Z,101431.69
2022-08-17T14:07:31.130Z,101427.72
2022-08-17T14:10:17.744Z,101416.81
2022-08-17T14:12:45.412Z,101414.97
2022-08-17T14:15:13.992Z,101415.19
2022-08-17T14:17:40.712Z,101417.91
2022-08-17T14:20:10.616Z,101405.41
2022-08-17T14:22:39.549Z,101407.66
2022-08-17T14:25:10.377Z,101391.66
2022-08-17T14:27:52.222Z,101393.03
2022-08-17T14:30:22.344Z,101389.19
2022-08-17T14:32:49.572Z,101389.44
2022-08-17T14:35:16.172Z,101393.53
2022-08-17T14:37:44.622Z,101381.19
2022-08-17T14:40:14.212Z,101383.19
2022-08-17T14:42:43.908Z,101392.53
2022-08-17T14:45:31.838Z,101390.84
2022-08-17T14:47:59.292Z,101380.13
2022-08-17T14:50:25.913Z,101394.50
2022-08-17T14:52:53.928Z,101393.53
2022-08-17T14:55:22.373Z,101399.91
2022-08-17T14:57:49.089Z,101392.13
2022-08-17T15:00:16.634Z,101396.66
2022-08-17T15:02:50.854Z,101394.97
2022-08-17T15:05:17.692Z,101388.88
2022-08-17T15:07:44.546Z,101386.34
2022-08-17T15:10:13.248Z,101392.72
2022-08-17T15:12:40.924Z,101387.19
2022-08-17T15:15:10.010Z,101378.97
2022-08-17T15:17:44.503Z,101385.50
2022-08-17T15:20:26.361Z,101383.34
2022-08-17T15:22:55.302Z,101361.97
2022-08-17T15:25:22.402Z,101367.31
2022-08-17T15:27:49.148Z,101366.16
2022-08-17T15:30:16.055Z,101362.69
2022-08-17T15:32:46.865Z,101367.22
2022-08-17T15:35:26.823Z,101369.22
2022-08-17T15:38:06.498Z,101369.06
2022-08-17T15:40:40.411Z,101370.59
2022-08-17T15:43:11.225Z,101366.91
2022-08-17T15:45:38.285Z,101362.69
2022-08-17T15:48:04.896Z,101365.06
2022-08-17T15:50:31.981Z,101371.44
2022-08-17T15:53:00.783Z,101365.38
2022-08-17T15:55:28.990Z,101362.69
2022-08-17T15:57:55.519Z,101376.16
2022-08-17T16:00:23.994Z,101373.75
2022-08-17T16:03:14.597Z,101377.31
2022-08-17T16:05:43.471Z,101380.69
2022-08-17T16:08:11.053Z,101374.78
2022-08-17T16:10:38.191Z,101371.91
2022-08-17T16:13:04.694Z,101371.22
2022-08-17T16:15:34.068Z,101383.22
2022-08-17T16:18:00.583Z,101392.16
2022-08-17T16:20:27.241Z,101398.53
2022-08-17T16:22:54.129Z,101391.16
2022-08-17T16:25:49.016Z,101395.22
2022-08-17T16:28:16.162Z,101393.38
2022-08-17T16:30:44.485Z,101395.06
2022-08-17T16:33:12.176Z,101382.59
2022-08-17T16:35:41.880Z,101389.84
2022-08-17T16:38:09.424Z,101391.69
2022-08-17T16:40:36.452Z,101383.06
2022-08-17T16:43:04.331Z,101391.53
2022-08-17T16:45:36.273Z,101395.84
2022-08-17T16:48:02.889Z,101405.09
2022-08-17T16:50:29.758Z,101397.16
2022-08-17T16:53:08.424Z,101401.56
2022-08-17T16:55:35.851Z,101405.41
2022-08-17T16:58:06.397Z,101406.41
2022-08-17T17:00:34.057Z,101398.31
2022-08-17T17:03:19.128Z,101403.47
2022-08-17T17:06:18.695Z,101414.94
2022-08-17T17:08:55.862Z,101414.56
2022-08-17T17:11:34.210Z,101422.31
2022-08-17T17:14:04.784Z,101426.03
2022-08-17T17:16:45.719Z,101421.63
2022-08-17T17:19:51.354Z,101418.47
2022-08-17T17:22:24.429Z,101415.56
2022-08-17T17:25:07.692Z,101409.09
2022-08-17T17:27:47.315Z,101412.78
2022-08-17T17:30:20.766Z,101409.09
2022-08-17T17:33:06.157Z,101410.94
2022-08-17T17:35:33.887Z,101413.47
2022-08-17T17:38:05.449Z,101409.53
2022-08-17T17:40:42.737Z,101409.13
2022-08-17T17:43:37.184Z,101410.81
2022-08-17T17:46:26.485Z,101413.13
2022-08-17T17:48:52.825Z,101413.81
2022-08-17T17:52:09.075Z,101419.03
2022-08-17T17:54:46.794Z,101427.53
2022-08-17T17:57:38.270Z,101427.97
2022-08-17T18:00:22.070Z,101424.44
2022-08-17T18:03:12.649Z,101442.13
2022-08-17T18:06:25.562Z,101451.78
2022-08-17T18:09:39.970Z,101448.50
2022-08-17T18:12:12.182Z,101442.88
2022-08-17T18:14:58.311Z,101453.34
2022-08-17T18:17:24.755Z,101460.97
2022-08-17T18:19:55.252Z,101460.13
2022-08-17T18:22:22.743Z,101467.97
2022-08-17T18:24:56.124Z,101474.50
2022-08-17T18:27:28.301Z,101465.72
2022-08-17T18:29:56.919Z,101454.94
2022-08-17T18:32:23.396Z,101456.50
2022-08-17T18:34:56.599Z,101461.47
2022-08-17T18:37:46.589Z,101461.59
2022-08-17T18:40:16.327Z,101468.97
2022-08-17T18:43:04.551Z,101470.25
2022-08-17T18:45:34.777Z,101475.78
2022-08-17T18:48:02.030Z,101477.78
2022-08-17T18:50:43.817Z,101471.56
2022-08-17T18:53:26.755Z,101474.41
2022-08-17T18:56:33.438Z,101481.19
2022-08-17T18:59:11.279Z,101481.47
2022-08-17T19:02:10.022Z,101487.00
2022-08-17T19:05:06.180Z,101482.88
2022-08-17T19:07:35.749Z,101489.69
2022-08-17T19:10:28.616Z,101477.78
2022-08-17T19:13:00.296Z,101482.44
2022-08-17T19:15:35.866Z,101477.19
2022-08-17T19:18:15.806Z,101473.81
2022-08-17T19:20:53.766Z,101479.34
2022-08-17T19:23:53.366Z,101493.50
2022-08-17T19:26:53.513Z,101493.63
2022-08-17T19:29:36.469Z,101498.78
2022-08-17T19:32:04.072Z,101501.31
2022-08-17T19:34:34.439Z,101507.84
2022-08-17T19:37:29.981Z,101518.63
2022-08-17T19:40:48.814Z,101518.88
2022-08-17T19:43:15.311Z,101505.31
2022-08-17T19:45:50.176Z,101511.94
2022-08-17T19:48:38.444Z,101505.56
2022-08-17T19:51:15.563Z,101497.66
2022-08-17T19:54:26.931Z,101507.69
2022-08-17T19:57:22.200Z,101518.47
2022-08-17T19:59:58.642Z,101521.31
2022-08-17T20:02:49.761Z,101525.09
2022-08-17T20:05:30.690Z,101519.56
2022-08-17T20:08:11.504Z,101526.78
2022-08-17T20:11:10.270Z,101531.47
2022-08-17T20:13:41.433Z,101531.63
2022-08-17T20:16:10.017Z,101525.25
2022-08-17T20:18:48.532Z,101529.09
2022-08-17T20:21:20.080Z,101522.16
2022-08-17T20:23:56.350Z,101525.97
2022-08-17T20:26:44.107Z,101527.38
2022-08-17T20:29:39.971Z,101531.06
2022-08-17T20:32:22.233Z,101524.69
2022-08-17T20:35:00.367Z,101508.53
2022-08-17T20:37:31.666Z,101519.47
2022-08-17T20:39:58.044Z,101513.38
2022-08-17T20:42:24.501Z,101509.69
2022-08-17T20:44:57.596Z,101515.19
2022-08-17T20:48:01.215Z,101515.34
2022-08-17T20:50:34.815Z,101507.00
2022-08-17T20:53:08.110Z,101507.25
2022-08-17T20:55:51.791Z,101500.19
2022-08-17T20:58:30.911Z,101504.88
2022-08-17T21:00:57.696Z,101496.09
2022-08-17T21:03:24.334Z,101498.69
2022-08-17T21:05:59.943Z,101499.13
2022-08-17T21:08:45.674Z,101491.91
2022-08-17T21:12:02.306Z,101498.13
2022-08-17T21:14:29.510Z,101494.28
2022-08-17T21:16:59.205Z,101504.63
2022-08-17T21:20:10.479Z,101503.91
2022-08-17T21:23:03.452Z,101506.31
2022-08-17T21:25:59.285Z,101500.22
2022-08-17T21:29:01.085Z,101503.94
2022-08-17T21:31:43.043Z,101501.56
2022-08-17T21:34:16.814Z,101504.38
2022-08-17T21:36:45.682Z,101506.94
2022-08-17T21:39:15.893Z,101513.88
2022-08-17T21:41:53.574Z,101509.47
2022-08-17T21:44:31.327Z,101516.25
2022-08-17T21:47:13.820Z,101526.19
2022-08-17T21:49:40.660Z,101531.25
2022-08-17T21:52:07.470Z,101537.19
2022-08-17T21:54:39.864Z,101539.03
2022-08-17T21:57:16.254Z,101531.41
2022-08-17T21:59:44.143Z,101543.31
2022-08-17T22:02:20.810Z,101543.59
2022-08-17T22:05:02.480Z,101549.69
2022-08-17T22:07:39.746Z,101550.41
2022-08-17T22:10:26.507Z,101551.81
2022-08-17T22:13:24.114Z,101554.19
2022-08-17T22:16:29.002Z,101550.41
2022-08-17T22:18:58.581Z,101544.59
2022-08-17T22:21:25.574Z,101543.47
2022-08-17T22:24:05.935Z,101549.13
2022-08-17T22:27:10.219Z,101549.44
2022-08-17T22:29:44.462Z,101546.03
2022-08-17T22:32:10.970Z,101558.34
2022-08-17T22:34:38.993Z,101562.03
2022-08-17T22:37:27.237Z,101566.72
2022-08-17T22:39:58.966Z,101562.19
2022-08-17T22:42:25.778Z,101557.78
2022-08-17T22:44:54.528Z,101558.09
2022-08-17T22:47:30.998Z,101557.09
2022-08-17T22:50:04.502Z,101556.09
2022-08-17T22:53:03.369Z,101566.00
2022-08-17T22:55:51.706Z,101559.63
2022-08-17T22:58:40.586Z,101555.09
2022-08-17T23:01:43.501Z,101563.59
2022-08-17T23:04:29.244Z,101564.88
2022-08-17T23:06:55.863Z,101567.31
2022-08-17T23:09:22.431Z,101573.53
2022-08-17T23:11:52.549Z,101578.06
2022-08-17T23:14:20.866Z,101574.25
2022-08-17T23:16:50.947Z,101577.09
2022-08-17T23:19:20.482Z,101557.00
2022-08-17T23:21:51.004Z,101563.75
2022-08-17T23:24:23.098Z,101573.81
2022-08-17T23:26:50.065Z,101571.41
2022-08-17T23:29:16.583Z,101557.41
2022-08-17T23:31:43.203Z,101560.38
2022-08-17T23:34:13.141Z,101554.16
2022-08-17T23:36:39.644Z,101558.81
2022-08-17T23:39:09.553Z,101549.63
2022-08-17T23:41:39.898Z,101540.13
2022-08-17T23:44:07.101Z,101546.38
2022-08-17T23:46:34.671Z,101553.84
2022-08-17T23:49:01.261Z,101547.06
2022-08-17T23:51:31.579Z,101561.06
2022-08-17T23:54:11.580Z,101557.69
2022-08-17T23:56:46.540Z,101550.47
2022-08-17T23:59:18.286Z,101558.53
